sensor_id;sensor_type;location;lat;lon;timestamp;temperature;humidity
16728;DHT22;8482;54.396;18.590;2022-08-30T00:01:58;19.50;99.90
16728;DHT22;8482;54.396;18.590;2022-08-30T00:04:24;19.40;99.90
16728;DHT22;8482;54.396;18.590;2022-08-30T00:06:51;19.40;99.90
16728;DHT22;8482;54.396;18.590;2022-08-30T00:09:17;19.40;99.90
16728;DHT22;8482;54.396;18.590;2022-08-30T00:11:42;19.50;99.90
16728;DHT22;8482;54.396;18.590;2022-08-30T00:14:08;19.40;99.90
16728;DHT22;8482;54.396;18.590;2022-08-30T00:16:34;19.50;99.90
16728;DHT22;8482;54.396;18.590;2022-08-30T00:18:59;19.40;99.90
16728;DHT22;8482;54.396;18.590;2022-08-30T00:21:27;19.50;99.90
16728;DHT22;8482;54.396;18.590;2022-08-30T00:23:53;19.50;99.90
16728;DHT22;8482;54.396;18.590;2022-08-30T00:26:19;19.40;99.90
16728;DHT22;8482;54.396;18.590;2022-08-30T00:28:45;19.40;99.90
16728;DHT22;8482;54.396;18.590;2022-08-30T00:31:11;19.50;99.90
16728;DHT22;8482;54.396;18.590;2022-08-30T00:33:38;19.50;99.90
16728;DHT22;8482;54.396;18.590;2022-08-30T00:36:04;19.40;99.90
16728;DHT22;8482;54.396;18.590;2022-08-30T00:38:30;19.40;99.90
16728;DHT22;8482;54.396;18.590;2022-08-30T00:40:56;19.50;99.90
16728;DHT22;8482;54.396;18.590;2022-08-30T00:43:30;19.40;99.90
16728;DHT22;8482;54.396;18.590;2022-08-30T00:45:58;19.40;99.90
16728;DHT22;8482;54.396;18.590;2022-08-30T00:48:24;19.40;99.90
16728;DHT22;8482;54.396;18.590;2022-08-30T00:51:00;19.40;99.90
16728;DHT22;8482;54.396;18.590;2022-08-30T00:53:34;19.40;99.90
16728;DHT22;8482;54.396;18.590;2022-08-30T00:56:04;19.40;99.90
16728;DHT22;8482;54.396;18.590;2022-08-30T00:58:33;19.40;99.90
16728;DHT22;8482;54.396;18.590;2022-08-30T01:01:02;19.30;99.90
16728;DHT22;8482;54.396;18.590;2022-08-30T01:03:29;19.30;99.90
16728;DHT22;8482;54.396;18.590;2022-08-30T01:05:57;19.30;99.90
16728;DHT22;8482;54.396;18.590;2022-08-30T01:08:24;19.30;99.90
16728;DHT22;8482;54.396;18.590;2022-08-30T01:10:52;19.20;99.90
16728;DHT22;8482;54.396;18.590;2022-08-30T01:13:20;19.20;99.90
16728;DHT22;8482;54.396;18.590;2022-08-30T01:15:48;19.20;99.90
16728;DHT22;8482;54.396;18.590;2022-08-30T01:18:15;19.20;99.90
16728;DHT22;8482;54.396;18.590;2022-08-30T01:20:51;19.20;99.90
16728;DHT22;8482;54.396;18.590;2022-08-30T01:23:30;19.20;99.90
16728;DHT22;8482;54.396;18.590;2022-08-30T01:25:57;19.20;99.90
16728;DHT22;8482;54.396;18.590;2022-08-30T01:28:26;19.10;99.90
16728;DHT22;8482;54.396;18.590;2022-08-30T01:30:53;19.10;99.90
16728;DHT22;8482;54.396;18.590;2022-08-30T01:33:20;19.10;99.90
16728;DHT22;8482;54.396;18.590;2022-08-30T01:35:57;19.10;99.90
16728;DHT22;8482;54.396;18.590;2022-08-30T01:38:49;19.10;99.90
16728;DHT22;8482;54.396;18.590;2022-08-30T01:41:20;19.10;99.90
16728;DHT22;8482;54.396;18.590;2022-08-30T01:43:48;19.10;99.90
16728;DHT22;8482;54.396;18.590;2022-08-30T01:46:17;19.10;99.90
16728;DHT22;8482;54.396;18.590;2022-08-30T01:48:45;19.10;99.90
16728;DHT22;8482;54.396;18.590;2022-08-30T01:51:12;19.00;99.90
16728;DHT22;8482;54.396;18.590;2022-08-30T01:53:40;19.00;99.90
16728;DHT22;8482;54.396;18.590;2022-08-30T01:56:07;19.00;99.90
16728;DHT22;8482;54.396;18.590;2022-08-30T01:58:35;19.00;99.90
16728;DHT22;8482;54.396;18.590;2022-08-30T02:01:08;19.00;99.90
16728;DHT22;8482;54.396;18.590;2022-08-30T02:03:38;19.00;99.90
16728;DHT22;8482;54.396;18.590;2022-08-30T02:06:06;19.00;99.90
16728;DHT22;8482;54.396;18.590;2022-08-30T02:08:35;19.00;99.90
16728;DHT22;8482;54.396;18.590;2022-08-30T02:11:03;19.00;99.90
16728;DHT22;8482;54.396;18.590;2022-08-30T02:13:31;19.00;99.90
16728;DHT22;8482;54.396;18.590;2022-08-30T02:15:57;19.00;99.90
16728;DHT22;8482;54.396;18.590;2022-08-30T02:18:24;18.90;99.90
16728;DHT22;8482;54.396;18.590;2022-08-30T02:20:51;18.90;99.90
16728;DHT22;8482;54.396;18.590;2022-08-30T02:23:17;18.90;99.90
16728;DHT22;8482;54.396;18.590;2022-08-30T02:25:44;18.90;99.90
16728;DHT22;8482;54.396;18.590;2022-08-30T02:28:11;18.90;99.90
16728;DHT22;8482;54.396;18.590;2022-08-30T02:30:38;18.90;99.90
16728;DHT22;8482;54.396;18.590;2022-08-30T02:33:04;18.90;99.90
16728;DHT22;8482;54.396;18.590;2022-08-30T02:35:30;18.90;99.90
16728;DHT22;8482;54.396;18.590;2022-08-30T02:37:56;18.90;99.90
16728;DHT22;8482;54.396;18.590;2022-08-30T02:40:21;18.90;99.90
16728;DHT22;8482;54.396;18.590;2022-08-30T02:42:48;18.90;99.90
16728;DHT22;8482;54.396;18.590;2022-08-30T02:45:15;18.90;99.90
16728;DHT22;8482;54.396;18.590;2022-08-30T02:47:41;18.90;99.90
16728;DHT22;8482;54.396;18.590;2022-08-30T02:50:08;18.90;99.90
16728;DHT22;8482;54.396;18.590;2022-08-30T02:52:36;18.90;99.90
16728;DHT22;8482;54.396;18.590;2022-08-30T02:55:03;18.90;99.90
16728;DHT22;8482;54.396;18.590;2022-08-30T02:57:30;18.90;99.90
16728;DHT22;8482;54.396;18.590;2022-08-30T02:59:56;18.90;99.90
16728;DHT22;8482;54.396;18.590;2022-08-30T03:02:23;18.80;99.90
16728;DHT22;8482;54.396;18.590;2022-08-30T03:04:50;18.80;99.90
16728;DHT22;8482;54.396;18.590;2022-08-30T03:07:17;18.80;99.90
16728;DHT22;8482;54.396;18.590;2022-08-30T03:09:42;18.80;99.90
16728;DHT22;8482;54.396;18.590;2022-08-30T03:12:09;18.70;99.90
16728;DHT22;8482;54.396;18.590;2022-08-30T03:14:37;18.80;99.90
16728;DHT22;8482;54.396;18.590;2022-08-30T03:17:07;18.70;99.90
16728;DHT22;8482;54.396;18.590;2022-08-30T03:19:35;18.70;99.90
16728;DHT22;8482;54.396;18.590;2022-08-30T03:22:03;18.70;99.90
16728;DHT22;8482;54.396;18.590;2022-08-30T03:24:29;18.70;99.90
16728;DHT22;8482;54.396;18.590;2022-08-30T03:26:56;18.70;99.90
16728;DHT22;8482;54.396;18.590;2022-08-30T03:29:21;18.60;99.90
16728;DHT22;8482;54.396;18.590;2022-08-30T03:31:48;18.60;99.90
16728;DHT22;8482;54.396;18.590;2022-08-30T03:34:14;18.60;99.90
16728;DHT22;8482;54.396;18.590;2022-08-30T03:36:40;18.50;99.90
16728;DHT22;8482;54.396;18.590;2022-08-30T03:39:07;18.50;99.90
16728;DHT22;8482;54.396;18.590;2022-08-30T03:41:34;18.50;99.90
16728;DHT22;8482;54.396;18.590;2022-08-30T03:44:01;18.50;99.90
16728;DHT22;8482;54.396;18.590;2022-08-30T03:46:28;18.50;99.90
16728;DHT22;8482;54.396;18.590;2022-08-30T03:48:54;18.50;99.90
16728;DHT22;8482;54.396;18.590;2022-08-30T03:51:21;18.50;99.90
16728;DHT22;8482;54.396;18.590;2022-08-30T03:53:48;18.50;99.90
16728;DHT22;8482;54.396;18.590;2022-08-30T03:56:14;18.50;99.90
16728;DHT22;8482;54.396;18.590;2022-08-30T03:58:41;18.40;99.90
16728;DHT22;8482;54.396;18.590;2022-08-30T04:01:07;18.40;99.90
16728;DHT22;8482;54.396;18.590;2022-08-30T04:03:33;18.40;99.90
16728;DHT22;8482;54.396;18.590;2022-08-30T04:05:59;18.40;99.90
16728;DHT22;8482;54.396;18.590;2022-08-30T04:08:26;18.40;99.90
16728;DHT22;8482;54.396;18.590;2022-08-30T04:10:53;18.40;99.90
16728;DHT22;8482;54.396;18.590;2022-08-30T04:13:21;18.40;99.90
16728;DHT22;8482;54.396;18.590;2022-08-30T04:15:48;18.40;99.90
16728;DHT22;8482;54.396;18.590;2022-08-30T04:18:15;18.40;99.90
16728;DHT22;8482;54.396;18.590;2022-08-30T04:20:41;18.30;99.90
16728;DHT22;8482;54.396;18.590;2022-08-30T04:23:08;18.30;99.90
16728;DHT22;8482;54.396;18.590;2022-08-30T04:25:37;18.30;99.90
16728;DHT22;8482;54.396;18.590;2022-08-30T04:28:06;18.30;99.90
16728;DHT22;8482;54.396;18.590;2022-08-30T04:30:33;18.20;99.90
16728;DHT22;8482;54.396;18.590;2022-08-30T04:33:02;18.20;99.90
16728;DHT22;8482;54.396;18.590;2022-08-30T04:35:28;18.20;99.90
16728;DHT22;8482;54.396;18.590;2022-08-30T04:37:54;18.20;99.90
16728;DHT22;8482;54.396;18.590;2022-08-30T04:40:19;18.20;99.90
16728;DHT22;8482;54.396;18.590;2022-08-30T04:42:45;18.20;99.90
16728;DHT22;8482;54.396;18.590;2022-08-30T04:45:14;18.20;99.90
16728;DHT22;8482;54.396;18.590;2022-08-30T04:47:43;18.20;99.90
16728;DHT22;8482;54.396;18.590;2022-08-30T04:50:12;18.20;99.90
16728;DHT22;8482;54.396;18.590;2022-08-30T04:52:40;18.20;99.90
16728;DHT22;8482;54.396;18.590;2022-08-30T04:55:07;18.20;99.90
16728;DHT22;8482;54.396;18.590;2022-08-30T04:57:35;18.20;99.90
16728;DHT22;8482;54.396;18.590;2022-08-30T05:00:04;18.20;99.90
16728;DHT22;8482;54.396;18.590;2022-08-30T05:02:33;18.10;99.90
16728;DHT22;8482;54.396;18.590;2022-08-30T05:04:58;18.20;99.90
16728;DHT22;8482;54.396;18.590;2022-08-30T05:07:44;18.20;99.90
16728;DHT22;8482;54.396;18.590;2022-08-30T05:10:10;18.20;99.90
16728;DHT22;8482;54.396;18.590;2022-08-30T05:12:36;18.20;99.90
16728;DHT22;8482;54.396;18.590;2022-08-30T05:15:02;18.20;99.90
16728;DHT22;8482;54.396;18.590;2022-08-30T05:17:28;18.30;99.90
16728;DHT22;8482;54.396;18.590;2022-08-30T05:19:54;18.30;99.90
16728;DHT22;8482;54.396;18.590;2022-08-30T05:22:19;18.30;99.90
16728;DHT22;8482;54.396;18.590;2022-08-30T05:24:45;18.30;99.90
16728;DHT22;8482;54.396;18.590;2022-08-30T05:27:11;18.30;99.90
16728;DHT22;8482;54.396;18.590;2022-08-30T05:29:36;18.30;99.90
16728;DHT22;8482;54.396;18.590;2022-08-30T05:32:02;18.30;99.90
16728;DHT22;8482;54.396;18.590;2022-08-30T05:34:29;18.40;99.90
16728;DHT22;8482;54.396;18.590;2022-08-30T05:36:55;18.40;99.90
16728;DHT22;8482;54.396;18.590;2022-08-30T05:39:21;18.40;99.90
16728;DHT22;8482;54.396;18.590;2022-08-30T05:41:46;18.40;99.90
16728;DHT22;8482;54.396;18.590;2022-08-30T05:44:12;18.40;99.90
16728;DHT22;8482;54.396;18.590;2022-08-30T05:46:38;18.40;99.90
16728;DHT22;8482;54.396;18.590;2022-08-30T05:49:09;18.50;99.90
16728;DHT22;8482;54.396;18.590;2022-08-30T05:51:36;18.50;99.90
16728;DHT22;8482;54.396;18.590;2022-08-30T05:54:03;18.50;99.90
16728;DHT22;8482;54.396;18.590;2022-08-30T05:56:33;18.50;99.90
16728;DHT22;8482;54.396;18.590;2022-08-30T05:59:01;18.60;99.90
16728;DHT22;8482;54.396;18.590;2022-08-30T06:01:32;18.60;99.90
16728;DHT22;8482;54.396;18.590;2022-08-30T06:04:01;18.60;99.90
16728;DHT22;8482;54.396;18.590;2022-08-30T06:06:30;18.60;99.90
16728;DHT22;8482;54.396;18.590;2022-08-30T06:08:57;18.70;99.90
16728;DHT22;8482;54.396;18.590;2022-08-30T06:11:24;18.70;99.90
16728;DHT22;8482;54.396;18.590;2022-08-30T06:13:51;18.70;99.90
16728;DHT22;8482;54.396;18.590;2022-08-30T06:16:20;18.80;99.90
16728;DHT22;8482;54.396;18.590;2022-08-30T06:18:48;18.80;99.90
16728;DHT22;8482;54.396;18.590;2022-08-30T06:21:20;18.80;99.90
16728;DHT22;8482;54.396;18.590;2022-08-30T06:23:48;18.80;99.90
16728;DHT22;8482;54.396;18.590;2022-08-30T06:26:15;18.80;99.90
16728;DHT22;8482;54.396;18.590;2022-08-30T06:28:41;18.90;99.90
16728;DHT22;8482;54.396;18.590;2022-08-30T06:31:08;18.90;99.90
16728;DHT22;8482;54.396;18.590;2022-08-30T06:33:36;18.90;99.90
16728;DHT22;8482;54.396;18.590;2022-08-30T06:36:03;18.90;99.90
16728;DHT22;8482;54.396;18.590;2022-08-30T06:38:30;18.90;99.90
16728;DHT22;8482;54.396;18.590;2022-08-30T06:40:56;19.00;99.90
16728;DHT22;8482;54.396;18.590;2022-08-30T06:43:22;19.00;99.90
16728;DHT22;8482;54.396;18.590;2022-08-30T06:45:48;19.00;99.90
16728;DHT22;8482;54.396;18.590;2022-08-30T06:48:13;19.00;99.90
16728;DHT22;8482;54.396;18.590;2022-08-30T06:50:39;19.10;99.90
16728;DHT22;8482;54.396;18.590;2022-08-30T06:53:07;19.10;99.90
16728;DHT22;8482;54.396;18.590;2022-08-30T06:55:33;19.10;99.90
16728;DHT22;8482;54.396;18.590;2022-08-30T06:58:00;19.20;99.90
16728;DHT22;8482;54.396;18.590;2022-08-30T07:00:26;19.20;99.90
16728;DHT22;8482;54.396;18.590;2022-08-30T07:02:53;19.20;99.90
16728;DHT22;8482;54.396;18.590;2022-08-30T07:05:19;19.20;99.90
16728;DHT22;8482;54.396;18.590;2022-08-30T07:07:49;19.20;99.90
16728;DHT22;8482;54.396;18.590;2022-08-30T07:10:18;19.20;99.90
16728;DHT22;8482;54.396;18.590;2022-08-30T07:12:46;19.20;99.90
16728;DHT22;8482;54.396;18.590;2022-08-30T07:15:13;19.30;99.90
16728;DHT22;8482;54.396;18.590;2022-08-30T07:17:38;19.20;99.90
16728;DHT22;8482;54.396;18.590;2022-08-30T07:20:23;19.30;99.90
16728;DHT22;8482;54.396;18.590;2022-08-30T07:22:48;19.30;99.90
16728;DHT22;8482;54.396;18.590;2022-08-30T07:25:15;19.30;99.90
16728;DHT22;8482;54.396;18.590;2022-08-30T07:27:41;19.30;99.90
16728;DHT22;8482;54.396;18.590;2022-08-30T07:30:07;19.30;99.90
16728;DHT22;8482;54.396;18.590;2022-08-30T07:32:33;19.30;99.90
16728;DHT22;8482;54.396;18.590;2022-08-30T07:34:59;19.30;99.90
16728;DHT22;8482;54.396;18.590;2022-08-30T07:37:25;19.30;99.90
16728;DHT22;8482;54.396;18.590;2022-08-30T07:39:51;19.30;99.90
16728;DHT22;8482;54.396;18.590;2022-08-30T07:42:17;19.30;99.90
16728;DHT22;8482;54.396;18.590;2022-08-30T07:44:43;19.30;99.90
16728;DHT22;8482;54.396;18.590;2022-08-30T07:47:09;19.30;99.90
16728;DHT22;8482;54.396;18.590;2022-08-30T07:49:36;19.30;99.90
16728;DHT22;8482;54.396;18.590;2022-08-30T07:52:03;19.30;99.90
16728;DHT22;8482;54.396;18.590;2022-08-30T07:54:29;19.30;99.90
16728;DHT22;8482;54.396;18.590;2022-08-30T07:56:55;19.30;99.90
16728;DHT22;8482;54.396;18.590;2022-08-30T07:59:22;19.30;99.90
16728;DHT22;8482;54.396;18.590;2022-08-30T08:01:48;19.30;99.90
16728;DHT22;8482;54.396;18.590;2022-08-30T08:04:13;19.30;99.90
16728;DHT22;8482;54.396;18.590;2022-08-30T08:06:40;19.20;99.90
16728;DHT22;8482;54.396;18.590;2022-08-30T08:09:07;19.20;99.90
16728;DHT22;8482;54.396;18.590;2022-08-30T08:11:34;19.20;99.90
16728;DHT22;8482;54.396;18.590;2022-08-30T08:14:00;19.20;99.90
16728;DHT22;8482;54.396;18.590;2022-08-30T08:16:30;19.20;99.90
16728;DHT22;8482;54.396;18.590;2022-08-30T08:18:58;19.20;99.90
16728;DHT22;8482;54.396;18.590;2022-08-30T08:21:24;19.10;99.90
16728;DHT22;8482;54.396;18.590;2022-08-30T08:23:51;19.10;99.90
16728;DHT22;8482;54.396;18.590;2022-08-30T08:26:19;19.20;99.90
16728;DHT22;8482;54.396;18.590;2022-08-30T08:28:45;19.10;99.90
16728;DHT22;8482;54.396;18.590;2022-08-30T08:31:23;19.10;99.90
16728;DHT22;8482;54.396;18.590;2022-08-30T08:33:50;19.10;99.90
16728;DHT22;8482;54.396;18.590;2022-08-30T08:36:15;19.10;99.90
16728;DHT22;8482;54.396;18.590;2022-08-30T08:38:43;19.10;99.90
16728;DHT22;8482;54.396;18.590;2022-08-30T08:41:36;19.00;99.90
16728;DHT22;8482;54.396;18.590;2022-08-30T08:50:17;19.00;99.90
16728;DHT22;8482;54.396;18.590;2022-08-30T08:52:53;19.00;99.90
16728;DHT22;8482;54.396;18.590;2022-08-30T08:55:52;18.90;99.90
16728;DHT22;8482;54.396;18.590;2022-08-30T09:01:11;18.90;99.90
16728;DHT22;8482;54.396;18.590;2022-08-30T09:03:38;18.80;99.90
16728;DHT22;8482;54.396;18.590;2022-08-30T09:06:22;18.80;99.90
16728;DHT22;8482;54.396;18.590;2022-08-30T09:08:53;18.80;99.90
16728;DHT22;8482;54.396;18.590;2022-08-30T09:11:26;18.80;99.90
16728;DHT22;8482;54.396;18.590;2022-08-30T09:13:54;18.80;99.90
16728;DHT22;8482;54.396;18.590;2022-08-30T09:16:46;18.80;99.90
16728;DHT22;8482;54.396;18.590;2022-08-30T09:27:47;18.70;99.90
16728;DHT22;8482;54.396;18.590;2022-08-30T09:30:18;18.80;99.90
16728;DHT22;8482;54.396;18.590;2022-08-30T09:33:02;18.70;99.90
16728;DHT22;8482;54.396;18.590;2022-08-30T09:35:41;18.80;99.90
16728;DHT22;8482;54.396;18.590;2022-08-30T09:38:19;18.80;99.90
16728;DHT22;8482;54.396;18.590;2022-08-30T09:40:56;18.80;99.90
16728;DHT22;8482;54.396;18.590;2022-08-30T09:43:32;18.80;99.90
16728;DHT22;8482;54.396;18.590;2022-08-30T09:48:44;18.90;99.90
16728;DHT22;8482;54.396;18.590;2022-08-30T10:00:06;19.00;99.90
16728;DHT22;8482;54.396;18.590;2022-08-30T10:03:03;19.00;99.90
16728;DHT22;8482;54.396;18.590;2022-08-30T10:15:24;19.10;99.90
16728;DHT22;8482;54.396;18.590;2022-08-30T10:18:25;19.10;99.90
16728;DHT22;8482;54.396;18.590;2022-08-30T10:21:09;19.20;99.90
16728;DHT22;8482;54.396;18.590;2022-08-30T10:23:44;19.20;99.90
16728;DHT22;8482;54.396;18.590;2022-08-30T10:26:44;19.30;99.90
16728;DHT22;8482;54.396;18.590;2022-08-30T10:29:27;19.30;99.90
16728;DHT22;8482;54.396;18.590;2022-08-30T10:32:38;19.40;99.90
16728;DHT22;8482;54.396;18.590;2022-08-30T10:40:37;19.50;99.90
16728;DHT22;8482;54.396;18.590;2022-08-30T10:47:12;19.60;99.90
16728;DHT22;8482;54.396;18.590;2022-08-30T10:49:44;19.60;99.90
16728;DHT22;8482;54.396;18.590;2022-08-30T10:55:09;19.70;99.90
16728;DHT22;8482;54.396;18.590;2022-08-30T10:57:39;19.80;99.90
16728;DHT22;8482;54.396;18.590;2022-08-30T11:00:08;19.80;99.90
16728;DHT22;8482;54.396;18.590;2022-08-30T11:06:23;19.80;99.90
16728;DHT22;8482;54.396;18.590;2022-08-30T11:08:58;19.80;99.90
16728;DHT22;8482;54.396;18.590;2022-08-30T11:14:41;19.90;99.90
16728;DHT22;8482;54.396;18.590;2022-08-30T11:17:36;19.90;99.90
16728;DHT22;8482;54.396;18.590;2022-08-30T11:20:32;19.90;99.90
16728;DHT22;8482;54.396;18.590;2022-08-30T11:23:28;20.00;99.90
16728;DHT22;8482;54.396;18.590;2022-08-30T11:26:07;20.00;99.90
16728;DHT22;8482;54.396;18.590;2022-08-30T11:33:50;20.20;99.90
16728;DHT22;8482;54.396;18.590;2022-08-30T11:41:33;20.30;99.90
16728;DHT22;8482;54.396;18.590;2022-08-30T11:44:14;20.40;99.90
16728;DHT22;8482;54.396;18.590;2022-08-30T11:47:00;20.40;99.90
16728;DHT22;8482;54.396;18.590;2022-08-30T11:52:46;20.50;99.90
16728;DHT22;8482;54.396;18.590;2022-08-30T11:58:42;20.50;99.90
16728;DHT22;8482;54.396;18.590;2022-08-30T12:06:50;20.60;99.90
16728;DHT22;8482;54.396;18.590;2022-08-30T12:09:57;20.60;99.90
16728;DHT22;8482;54.396;18.590;2022-08-30T12:14:54;20.60;99.90
16728;DHT22;8482;54.396;18.590;2022-08-30T12:21:09;20.70;99.90
16728;DHT22;8482;54.396;18.590;2022-08-30T12:23:45;20.70;99.90
16728;DHT22;8482;54.396;18.590;2022-08-30T12:28:50;20.70;99.90
16728;DHT22;8482;54.396;18.590;2022-08-30T12:31:22;20.70;99.90
16728;DHT22;8482;54.396;18.590;2022-08-30T12:33:56;20.70;99.90
16728;DHT22;8482;54.396;18.590;2022-08-30T12:36:48;20.80;99.90
16728;DHT22;8482;54.396;18.590;2022-08-30T12:39:25;20.80;99.90
16728;DHT22;8482;54.396;18.590;2022-08-30T12:41:56;20.80;99.90
16728;DHT22;8482;54.396;18.590;2022-08-30T12:44:46;20.80;99.90
16728;DHT22;8482;54.396;18.590;2022-08-30T12:47:19;20.90;99.90
16728;DHT22;8482;54.396;18.590;2022-08-30T12:49:50;20.90;99.90
16728;DHT22;8482;54.396;18.590;2022-08-30T12:52:41;21.00;99.90
16728;DHT22;8482;54.396;18.590;2022-08-30T12:55:21;21.00;99.90
16728;DHT22;8482;54.396;18.590;2022-08-30T12:58:08;21.10;99.90
16728;DHT22;8482;54.396;18.590;2022-08-30T13:00:38;21.10;99.90
16728;DHT22;8482;54.396;18.590;2022-08-30T13:06:01;21.10;99.90
16728;DHT22;8482;54.396;18.590;2022-08-30T13:13:54;21.10;99.90
16728;DHT22;8482;54.396;18.590;2022-08-30T13:16:25;21.10;99.90
16728;DHT22;8482;54.396;18.590;2022-08-30T13:19:26;21.10;99.90
16728;DHT22;8482;54.396;18.590;2022-08-30T13:21:58;21.20;99.90
16728;DHT22;8482;54.396;18.590;2022-08-30T13:24:27;21.20;99.90
16728;DHT22;8482;54.396;18.590;2022-08-30T13:26:57;21.20;99.90
16728;DHT22;8482;54.396;18.590;2022-08-30T13:29:27;21.30;99.90
16728;DHT22;8482;54.396;18.590;2022-08-30T13:31:54;21.30;99.90
16728;DHT22;8482;54.396;18.590;2022-08-30T13:34:21;21.30;99.90
16728;DHT22;8482;54.396;18.590;2022-08-30T13:36:54;21.30;99.90
16728;DHT22;8482;54.396;18.590;2022-08-30T13:39:22;21.40;99.90
16728;DHT22;8482;54.396;18.590;2022-08-30T13:41:49;21.40;99.90
16728;DHT22;8482;54.396;18.590;2022-08-30T13:44:15;21.40;99.90
16728;DHT22;8482;54.396;18.590;2022-08-30T13:46:45;21.30;99.90
16728;DHT22;8482;54.396;18.590;2022-08-30T13:49:19;21.40;99.90
16728;DHT22;8482;54.396;18.590;2022-08-30T13:51:48;21.40;99.90
16728;DHT22;8482;54.396;18.590;2022-08-30T13:54:20;21.30;99.90
16728;DHT22;8482;54.396;18.590;2022-08-30T13:56:49;21.30;99.90
16728;DHT22;8482;54.396;18.590;2022-08-30T13:59:17;21.30;99.90
16728;DHT22;8482;54.396;18.590;2022-08-30T14:01:44;21.30;99.90
16728;DHT22;8482;54.396;18.590;2022-08-30T14:04:11;21.30;99.90
16728;DHT22;8482;54.396;18.590;2022-08-30T14:06:37;21.20;99.90
16728;DHT22;8482;54.396;18.590;2022-08-30T14:09:03;21.20;99.90
16728;DHT22;8482;54.396;18.590;2022-08-30T14:11:32;21.30;99.90
16728;DHT22;8482;54.396;18.590;2022-08-30T14:13:59;21.40;99.90
16728;DHT22;8482;54.396;18.590;2022-08-30T14:16:26;21.50;99.90
16728;DHT22;8482;54.396;18.590;2022-08-30T14:18:52;21.70;99.90
16728;DHT22;8482;54.396;18.590;2022-08-30T14:21:18;21.80;99.90
16728;DHT22;8482;54.396;18.590;2022-08-30T14:23:44;21.90;99.90
16728;DHT22;8482;54.396;18.590;2022-08-30T14:26:14;22.00;99.90
16728;DHT22;8482;54.396;18.590;2022-08-30T14:28:42;22.10;99.90
16728;DHT22;8482;54.396;18.590;2022-08-30T14:31:10;22.20;99.90
16728;DHT22;8482;54.396;18.590;2022-08-30T14:33:36;22.30;99.90
16728;DHT22;8482;54.396;18.590;2022-08-30T14:36:03;22.50;99.90
16728;DHT22;8482;54.396;18.590;2022-08-30T14:38:29;22.60;99.90
16728;DHT22;8482;54.396;18.590;2022-08-30T14:40:55;22.80;99.90
16728;DHT22;8482;54.396;18.590;2022-08-30T14:43:21;23.00;99.90
16728;DHT22;8482;54.396;18.590;2022-08-30T14:45:47;23.30;99.90
16728;DHT22;8482;54.396;18.590;2022-08-30T14:48:13;23.60;99.40
16728;DHT22;8482;54.396;18.590;2022-08-30T14:50:38;23.80;98.60
16728;DHT22;8482;54.396;18.590;2022-08-30T14:53:05;23.90;97.80
16728;DHT22;8482;54.396;18.590;2022-08-30T14:55:33;24.00;97.40
16728;DHT22;8482;54.396;18.590;2022-08-30T14:57:59;24.10;97.30
16728;DHT22;8482;54.396;18.590;2022-08-30T15:00:25;24.10;97.30
16728;DHT22;8482;54.396;18.590;2022-08-30T15:02:51;24.30;96.90
16728;DHT22;8482;54.396;18.590;2022-08-30T15:05:18;24.40;96.40
16728;DHT22;8482;54.396;18.590;2022-08-30T15:07:47;24.40;95.80
16728;DHT22;8482;54.396;18.590;2022-08-30T15:10:16;24.40;95.50
16728;DHT22;8482;54.396;18.590;2022-08-30T15:12:47;24.30;95.50
16728;DHT22;8482;54.396;18.590;2022-08-30T15:15:16;24.30;95.90
16728;DHT22;8482;54.396;18.590;2022-08-30T15:17:44;24.20;95.60
16728;DHT22;8482;54.396;18.590;2022-08-30T15:20:11;24.20;95.60
16728;DHT22;8482;54.396;18.590;2022-08-30T15:22:38;24.20;95.60
16728;DHT22;8482;54.396;18.590;2022-08-30T15:25:04;24.30;95.60
16728;DHT22;8482;54.396;18.590;2022-08-30T15:27:31;24.40;95.30
16728;DHT22;8482;54.396;18.590;2022-08-30T15:29:57;24.40;94.70
16728;DHT22;8482;54.396;18.590;2022-08-30T15:32:23;24.40;94.40
16728;DHT22;8482;54.396;18.590;2022-08-30T15:34:48;24.40;94.10
16728;DHT22;8482;54.396;18.590;2022-08-30T15:37:14;24.30;94.00
16728;DHT22;8482;54.396;18.590;2022-08-30T15:39:47;24.20;94.00
16728;DHT22;8482;54.396;18.590;2022-08-30T15:42:14;24.10;94.10
16728;DHT22;8482;54.396;18.590;2022-08-30T15:44:40;24.00;94.30
16728;DHT22;8482;54.396;18.590;2022-08-30T15:47:06;23.90;94.70
16728;DHT22;8482;54.396;18.590;2022-08-30T15:49:32;23.80;94.80
16728;DHT22;8482;54.396;18.590;2022-08-30T15:52:03;23.60;95.10
16728;DHT22;8482;54.396;18.590;2022-08-30T15:54:29;23.40;95.80
16728;DHT22;8482;54.396;18.590;2022-08-30T15:56:56;23.20;96.10
16728;DHT22;8482;54.396;18.590;2022-08-30T15:59:26;23.10;96.20
16728;DHT22;8482;54.396;18.590;2022-08-30T16:01:53;23.00;96.50
16728;DHT22;8482;54.396;18.590;2022-08-30T16:04:18;22.80;96.70
16728;DHT22;8482;54.396;18.590;2022-08-30T16:06:45;22.70;97.00
16728;DHT22;8482;54.396;18.590;2022-08-30T16:09:11;22.60;97.10
16728;DHT22;8482;54.396;18.590;2022-08-30T16:11:37;22.50;97.20
16728;DHT22;8482;54.396;18.590;2022-08-30T16:14:04;22.50;97.30
16728;DHT22;8482;54.396;18.590;2022-08-30T16:16:31;22.40;97.30
16728;DHT22;8482;54.396;18.590;2022-08-30T16:18:56;22.30;97.60
16728;DHT22;8482;54.396;18.590;2022-08-30T16:21:26;22.20;97.90
16728;DHT22;8482;54.396;18.590;2022-08-30T16:23:59;22.10;98.40
16728;DHT22;8482;54.396;18.590;2022-08-30T16:26:28;22.00;98.80
16728;DHT22;8482;54.396;18.590;2022-08-30T16:28:56;21.80;99.20
16728;DHT22;8482;54.396;18.590;2022-08-30T16:31:25;21.70;99.50
16728;DHT22;8482;54.396;18.590;2022-08-30T16:33:53;21.70;99.80
16728;DHT22;8482;54.396;18.590;2022-08-30T16:36:20;21.60;99.90
16728;DHT22;8482;54.396;18.590;2022-08-30T16:38:48;21.50;99.90
16728;DHT22;8482;54.396;18.590;2022-08-30T16:41:16;21.40;99.90
16728;DHT22;8482;54.396;18.590;2022-08-30T16:43:42;21.40;99.90
16728;DHT22;8482;54.396;18.590;2022-08-30T16:46:12;21.30;99.90
16728;DHT22;8482;54.396;18.590;2022-08-30T16:48:41;21.20;99.90
16728;DHT22;8482;54.396;18.590;2022-08-30T16:51:11;21.10;99.90
16728;DHT22;8482;54.396;18.590;2022-08-30T16:53:39;21.10;99.90
16728;DHT22;8482;54.396;18.590;2022-08-30T16:56:14;21.00;99.90
16728;DHT22;8482;54.396;18.590;2022-08-30T16:58:44;20.90;99.90
16728;DHT22;8482;54.396;18.590;2022-08-30T17:01:11;20.90;99.90
16728;DHT22;8482;54.396;18.590;2022-08-30T17:03:37;20.90;99.90
16728;DHT22;8482;54.396;18.590;2022-08-30T17:06:03;20.80;99.90
16728;DHT22;8482;54.396;18.590;2022-08-30T17:08:29;20.70;99.90
16728;DHT22;8482;54.396;18.590;2022-08-30T17:10:55;20.70;99.90
16728;DHT22;8482;54.396;18.590;2022-08-30T17:13:21;20.70;99.90
16728;DHT22;8482;54.396;18.590;2022-08-30T17:15:47;20.60;99.90
16728;DHT22;8482;54.396;18.590;2022-08-30T17:18:17;20.60;99.90
16728;DHT22;8482;54.396;18.590;2022-08-30T17:20:44;20.50;99.90
16728;DHT22;8482;54.396;18.590;2022-08-30T17:23:10;20.50;99.90